sensor_id;sensor_type;location;lat;lon;timestamp;P1;durP1;ratioP1;P2;durP2;ratioP2
69951;SDS011;60406;48.408;13.392;2022-11-20T00:00:45;52.03;;;31.63;;
69951;SDS011;60406;48.408;13.392;2022-11-20T00:05:46;50.83;;;29.08;;
69951;SDS011;60406;48.408;13.392;2022-11-20T00:11:08;49.78;;;30.10;;
69951;SDS011;60406;48.408;13.392;2022-11-20T00:16:11;48.35;;;29.88;;
69951;SDS011;60406;48.408;13.392;2022-11-20T00:21:34;50.03;;;30.83;;
69951;SDS011;60406;48.408;13.392;2022-11-20T00:26:34;54.75;;;31.92;;
69951;SDS011;60406;48.408;13.392;2022-11-20T00:31:35;50.30;;;30.83;;
69951;SDS011;60406;48.408;13.392;2022-11-20T00:36:36;51.53;;;29.55;;
69951;SDS011;60406;48.408;13.392;2022-11-20T00:41:37;53.83;;;31.50;;
69951;SDS011;60406;48.408;13.392;2022-11-20T00:46:38;52.17;;;29.77;;
69951;SDS011;60406;48.408;13.392;2022-11-20T00:51:39;53.03;;;30.05;;
69951;SDS011;60406;48.408;13.392;2022-11-20T00:56:40;46.15;;;27.92;;
69951;SDS011;60406;48.408;13.392;2022-11-20T01:01:41;53.88;;;31.38;;
69951;SDS011;60406;48.408;13.392;2022-11-20T01:06:41;52.20;;;30.17;;
69951;SDS011;60406;48.408;13.392;2022-11-20T01:11:43;51.70;;;31.00;;
69951;SDS011;60406;48.408;13.392;2022-11-20T01:16:45;57.80;;;31.50;;
69951;SDS011;60406;48.408;13.392;2022-11-20T01:21:51;55.85;;;31.05;;
69951;SDS011;60406;48.408;13.392;2022-11-20T01:26:53;58.72;;;32.83;;
69951;SDS011;60406;48.408;13.392;2022-11-20T01:32:14;55.83;;;30.90;;
69951;SDS011;60406;48.408;13.392;2022-11-20T01:37:35;55.50;;;31.20;;
69951;SDS011;60406;48.408;13.392;2022-11-20T01:42:36;63.47;;;34.63;;
69951;SDS011;60406;48.408;13.392;2022-11-20T01:47:40;60.83;;;34.78;;
69951;SDS011;60406;48.408;13.392;2022-11-20T01:53:05;59.95;;;32.55;;
69951;SDS011;60406;48.408;13.392;2022-11-20T01:58:09;57.25;;;33.00;;
69951;SDS011;60406;48.408;13.392;2022-11-20T02:03:30;56.17;;;31.60;;
69951;SDS011;60406;48.408;13.392;2022-11-20T02:08:31;57.50;;;32.90;;
69951;SDS011;60406;48.408;13.392;2022-11-20T02:13:33;56.25;;;32.00;;
69951;SDS011;60406;48.408;13.392;2022-11-20T02:18:55;59.83;;;32.13;;
69951;SDS011;60406;48.408;13.392;2022-11-20T02:24:01;58.80;;;32.00;;
69951;SDS011;60406;48.408;13.392;2022-11-20T02:29:26;59.65;;;33.97;;
69951;SDS011;60406;48.408;13.392;2022-11-20T02:39:30;55.45;;;30.70;;
69951;SDS011;60406;48.408;13.392;2022-11-20T02:44:51;60.03;;;34.45;;
69951;SDS011;60406;48.408;13.392;2022-11-20T02:49:52;62.55;;;34.75;;
69951;SDS011;60406;48.408;13.392;2022-11-20T02:55:13;63.85;;;34.38;;
69951;SDS011;60406;48.408;13.392;2022-11-20T03:00:35;60.00;;;33.10;;
69951;SDS011;60406;48.408;13.392;2022-11-20T03:05:35;64.43;;;34.95;;
69951;SDS011;60406;48.408;13.392;2022-11-20T03:10:36;58.88;;;33.72;;
69951;SDS011;60406;48.408;13.392;2022-11-20T03:15:37;68.25;;;36.45;;
69951;SDS011;60406;48.408;13.392;2022-11-20T03:20:38;83.55;;;38.92;;
69951;SDS011;60406;48.408;13.392;2022-11-20T03:25:39;94.00;;;41.22;;
69951;SDS011;60406;48.408;13.392;2022-11-20T03:30:40;90.93;;;41.67;;
69951;SDS011;60406;48.408;13.392;2022-11-20T03:35:41;89.68;;;41.88;;
69951;SDS011;60406;48.408;13.392;2022-11-20T03:40:42;93.32;;;41.28;;
69951;SDS011;60406;48.408;13.392;2022-11-20T03:45:42;75.35;;;37.97;;
69951;SDS011;60406;48.408;13.392;2022-11-20T03:50:43;80.45;;;39.00;;
69951;SDS011;60406;48.408;13.392;2022-11-20T03:55:44;74.22;;;37.42;;
69951;SDS011;60406;48.408;13.392;2022-11-20T04:00:45;73.45;;;36.28;;
69951;SDS011;60406;48.408;13.392;2022-11-20T04:06:07;67.97;;;35.25;;
69951;SDS011;60406;48.408;13.392;2022-11-20T04:11:14;74.53;;;36.37;;
69951;SDS011;60406;48.408;13.392;2022-11-20T04:16:20;72.43;;;37.90;;
69951;SDS011;60406;48.408;13.392;2022-11-20T04:21:22;76.57;;;38.65;;
69951;SDS011;60406;48.408;13.392;2022-11-20T04:26:24;88.70;;;39.25;;
69951;SDS011;60406;48.408;13.392;2022-11-20T04:31:27;77.35;;;37.83;;
69951;SDS011;60406;48.408;13.392;2022-11-20T04:36:30;73.23;;;35.77;;
69951;SDS011;60406;48.408;13.392;2022-11-20T04:41:51;65.05;;;35.20;;
69951;SDS011;60406;48.408;13.392;2022-11-20T04:46:52;67.15;;;34.92;;
69951;SDS011;60406;48.408;13.392;2022-11-20T04:52:13;68.28;;;35.15;;
69951;SDS011;60406;48.408;13.392;2022-11-20T04:57:34;72.85;;;37.22;;
69951;SDS011;60406;48.408;13.392;2022-11-20T05:02:35;63.95;;;33.53;;
69951;SDS011;60406;48.408;13.392;2022-11-20T05:07:36;71.05;;;38.20;;
69951;SDS011;60406;48.408;13.392;2022-11-20T05:12:37;67.25;;;35.40;;
69951;SDS011;60406;48.408;13.392;2022-11-20T05:17:38;65.38;;;35.10;;
69951;SDS011;60406;48.408;13.392;2022-11-20T05:22:38;65.90;;;35.30;;
69951;SDS011;60406;48.408;13.392;2022-11-20T05:27:39;59.75;;;33.33;;
69951;SDS011;60406;48.408;13.392;2022-11-20T05:33:00;65.95;;;33.35;;
69951;SDS011;60406;48.408;13.392;2022-11-20T05:38:01;64.63;;;33.35;;
69951;SDS011;60406;48.408;13.392;2022-11-20T05:43:02;74.70;;;35.90;;
69951;SDS011;60406;48.408;13.392;2022-11-20T05:48:23;72.20;;;35.88;;
69951;SDS011;60406;48.408;13.392;2022-11-20T05:53:25;70.95;;;38.80;;
69951;SDS011;60406;48.408;13.392;2022-11-20T05:58:26;64.38;;;35.30;;
69951;SDS011;60406;48.408;13.392;2022-11-20T06:03:47;73.90;;;35.58;;
69951;SDS011;60406;48.408;13.392;2022-11-20T06:09:09;75.88;;;37.03;;
69951;SDS011;60406;48.408;13.392;2022-11-20T06:14:10;72.70;;;36.05;;
69951;SDS011;60406;48.408;13.392;2022-11-20T06:19:11;72.05;;;35.13;;
69951;SDS011;60406;48.408;13.392;2022-11-20T06:24:12;69.88;;;36.35;;
69951;SDS011;60406;48.408;13.392;2022-11-20T06:29:12;61.92;;;32.88;;
69951;SDS011;60406;48.408;13.392;2022-11-20T06:34:13;73.13;;;37.03;;
69951;SDS011;60406;48.408;13.392;2022-11-20T06:39:34;74.72;;;36.42;;
69951;SDS011;60406;48.408;13.392;2022-11-20T06:44:35;71.03;;;34.88;;
69951;SDS011;60406;48.408;13.392;2022-11-20T06:49:36;63.97;;;33.72;;
69951;SDS011;60406;48.408;13.392;2022-11-20T06:54:57;60.88;;;33.38;;
69951;SDS011;60406;48.408;13.392;2022-11-20T07:00:18;56.63;;;30.05;;
69951;SDS011;60406;48.408;13.392;2022-11-20T07:05:19;53.03;;;29.60;;
69951;SDS011;60406;48.408;13.392;2022-11-20T07:10:40;49.45;;;29.77;;
69951;SDS011;60406;48.408;13.392;2022-11-20T07:16:02;49.20;;;28.77;;
69951;SDS011;60406;48.408;13.392;2022-11-20T07:21:08;49.67;;;28.20;;
69951;SDS011;60406;48.408;13.392;2022-11-20T07:26:30;45.72;;;27.08;;
69951;SDS011;60406;48.408;13.392;2022-11-20T07:31:31;50.67;;;30.80;;
69951;SDS011;60406;48.408;13.392;2022-11-20T07:36:32;46.58;;;28.85;;
69951;SDS011;60406;48.408;13.392;2022-11-20T07:41:53;45.53;;;28.60;;
69951;SDS011;60406;48.408;13.392;2022-11-20T07:47:14;41.28;;;27.95;;
69951;SDS011;60406;48.408;13.392;2022-11-20T07:52:15;42.90;;;27.20;;
69951;SDS011;60406;48.408;13.392;2022-11-20T07:57:17;39.53;;;25.08;;
69951;SDS011;60406;48.408;13.392;2022-11-20T08:02:18;40.53;;;26.73;;
69951;SDS011;60406;48.408;13.392;2022-11-20T08:07:19;39.22;;;26.17;;
69951;SDS011;60406;48.408;13.392;2022-11-20T08:12:20;43.17;;;27.65;;
69951;SDS011;60406;48.408;13.392;2022-11-20T08:17:21;42.58;;;26.63;;
69951;SDS011;60406;48.408;13.392;2022-11-20T08:22:22;38.88;;;26.75;;
69951;SDS011;60406;48.408;13.392;2022-11-20T08:27:23;41.08;;;26.58;;
69951;SDS011;60406;48.408;13.392;2022-11-20T08:32:24;39.25;;;26.73;;
69951;SDS011;60406;48.408;13.392;2022-11-20T08:37:25;38.55;;;25.85;;
69951;SDS011;60406;48.408;13.392;2022-11-20T08:42:25;35.60;;;25.00;;
69951;SDS011;60406;48.408;13.392;2022-11-20T08:47:47;39.95;;;29.10;;
69951;SDS011;60406;48.408;13.392;2022-11-20T08:53:08;33.38;;;24.90;;
69951;SDS011;60406;48.408;13.392;2022-11-20T08:58:09;38.85;;;29.20;;
69951;SDS011;60406;48.408;13.392;2022-11-20T09:03:30;36.05;;;26.55;;
69951;SDS011;60406;48.408;13.392;2022-11-20T09:08:31;38.22;;;30.77;;
69951;SDS011;60406;48.408;13.392;2022-11-20T09:13:33;40.08;;;28.08;;
69951;SDS011;60406;48.408;13.392;2022-11-20T09:18:54;33.05;;;22.27;;
69951;SDS011;60406;48.408;13.392;2022-11-20T09:24:16;32.53;;;22.90;;
69951;SDS011;60406;48.408;13.392;2022-11-20T09:29:17;33.10;;;20.95;;
69951;SDS011;60406;48.408;13.392;2022-11-20T09:34:17;34.20;;;20.60;;
69951;SDS011;60406;48.408;13.392;2022-11-20T09:39:18;30.98;;;22.13;;
69951;SDS011;60406;48.408;13.392;2022-11-20T09:44:29;27.60;;;19.65;;
69951;SDS011;60406;48.408;13.392;2022-11-20T09:55:10;25.10;;;17.88;;
69951;SDS011;60406;48.408;13.392;2022-11-20T10:00:13;16.33;;;12.10;;
69951;SDS011;60406;48.408;13.392;2022-11-20T10:05:18;11.60;;;8.55;;
69951;SDS011;60406;48.408;13.392;2022-11-20T10:10:22;11.38;;;10.18;;
69951;SDS011;60406;48.408;13.392;2022-11-20T10:21:22;5.72;;;4.07;;
69951;SDS011;60406;48.408;13.392;2022-11-20T10:26:46;5.13;;;4.25;;
69951;SDS011;60406;48.408;13.392;2022-11-20T10:32:02;6.13;;;4.20;;
69951;SDS011;60406;48.408;13.392;2022-11-20T10:37:25;8.55;;;6.07;;
69951;SDS011;60406;48.408;13.392;2022-11-20T10:47:44;4.65;;;3.95;;
69951;SDS011;60406;48.408;13.392;2022-11-20T11:04:01;4.70;;;3.55;;
69951;SDS011;60406;48.408;13.392;2022-11-20T11:09:19;4.07;;;3.30;;
69951;SDS011;60406;48.408;13.392;2022-11-20T11:14:23;3.65;;;2.90;;
69951;SDS011;60406;48.408;13.392;2022-11-20T11:19:44;4.43;;;2.50;;
69951;SDS011;60406;48.408;13.392;2022-11-20T11:25:07;3.60;;;2.67;;
69951;SDS011;60406;48.408;13.392;2022-11-20T11:30:43;4.33;;;3.17;;
69951;SDS011;60406;48.408;13.392;2022-11-20T11:35:45;4.20;;;2.95;;
69951;SDS011;60406;48.408;13.392;2022-11-20T11:41:20;3.35;;;2.58;;
69951;SDS011;60406;48.408;13.392;2022-11-20T11:46:54;3.05;;;2.35;;
69951;SDS011;60406;48.408;13.392;2022-11-20T11:52:20;2.42;;;1.98;;
69951;SDS011;60406;48.408;13.392;2022-11-20T12:08:16;3.47;;;2.33;;
69951;SDS011;60406;48.408;13.392;2022-11-20T12:18:51;2.33;;;1.83;;
69951;SDS011;60406;48.408;13.392;2022-11-20T12:24:30;3.67;;;2.00;;
69951;SDS011;60406;48.408;13.392;2022-11-20T12:29:53;4.47;;;2.70;;
69951;SDS011;60406;48.408;13.392;2022-11-20T12:41:11;4.07;;;3.10;;
69951;SDS011;60406;48.408;13.392;2022-11-20T12:51:26;3.40;;;2.25;;
69951;SDS011;60406;48.408;13.392;2022-11-20T12:56:41;3.00;;;2.70;;
69951;SDS011;60406;48.408;13.392;2022-11-20T13:07:40;3.38;;;2.53;;
69951;SDS011;60406;48.408;13.392;2022-11-20T13:12:45;5.50;;;3.72;;
69951;SDS011;60406;48.408;13.392;2022-11-20T13:18:00;4.65;;;3.60;;
69951;SDS011;60406;48.408;13.392;2022-11-20T13:23:02;5.38;;;4.22;;
69951;SDS011;60406;48.408;13.392;2022-11-20T13:33:21;5.25;;;3.67;;
69951;SDS011;60406;48.408;13.392;2022-11-20T13:38:23;6.07;;;3.53;;
69951;SDS011;60406;48.408;13.392;2022-11-20T13:43:44;4.32;;;3.10;;
69951;SDS011;60406;48.408;13.392;2022-11-20T13:48:45;3.30;;;2.35;;
69951;SDS011;60406;48.408;13.392;2022-11-20T13:59:12;5.07;;;2.78;;
69951;SDS011;60406;48.408;13.392;2022-11-20T14:04:49;3.15;;;2.63;;
69951;SDS011;60406;48.408;13.392;2022-11-20T14:10:32;3.85;;;2.13;;
69951;SDS011;60406;48.408;13.392;2022-11-20T14:15:33;4.05;;;2.70;;
69951;SDS011;60406;48.408;13.392;2022-11-20T14:20:35;7.38;;;4.85;;
69951;SDS011;60406;48.408;13.392;2022-11-20T14:25:41;5.07;;;3.83;;
69951;SDS011;60406;48.408;13.392;2022-11-20T14:30:43;4.40;;;3.50;;
69951;SDS011;60406;48.408;13.392;2022-11-20T14:35:47;11.15;;;6.28;;
69951;SDS011;60406;48.408;13.392;2022-11-20T14:41:16;7.90;;;5.75;;
69951;SDS011;60406;48.408;13.392;2022-11-20T14:46:18;5.38;;;4.03;;
69951;SDS011;60406;48.408;13.392;2022-11-20T14:51:40;6.25;;;3.83;;
69951;SDS011;60406;48.408;13.392;2022-11-20T14:56:41;3.25;;;2.10;;
69951;SDS011;60406;48.408;13.392;2022-11-20T15:01:42;4.20;;;2.35;;
69951;SDS011;60406;48.408;13.392;2022-11-20T15:06:56;2.20;;;1.92;;
69951;SDS011;60406;48.408;13.392;2022-11-20T15:11:59;4.55;;;3.40;;
69951;SDS011;60406;48.408;13.392;2022-11-20T15:17:01;1.97;;;1.20;;
69951;SDS011;60406;48.408;13.392;2022-11-20T15:22:02;2.13;;;1.70;;
69951;SDS011;60406;48.408;13.392;2022-11-20T15:27:23;2.40;;;1.85;;
69951;SDS011;60406;48.408;13.392;2022-11-20T15:32:24;5.72;;;4.20;;
69951;SDS011;60406;48.408;13.392;2022-11-20T15:37:25;11.80;;;8.85;;
69951;SDS011;60406;48.408;13.392;2022-11-20T15:42:26;11.30;;;6.88;;
69951;SDS011;60406;48.408;13.392;2022-11-20T15:47:31;4.45;;;3.60;;
69951;SDS011;60406;48.408;13.392;2022-11-20T15:52:33;2.67;;;2.03;;
69951;SDS011;60406;48.408;13.392;2022-11-20T15:57:55;2.70;;;2.30;;
69951;SDS011;60406;48.408;13.392;2022-11-20T16:03:16;4.70;;;3.38;;
69951;SDS011;60406;48.408;13.392;2022-11-20T16:08:17;6.78;;;4.68;;
69951;SDS011;60406;48.408;13.392;2022-11-20T16:13:39;2.72;;;2.22;;
69951;SDS011;60406;48.408;13.392;2022-11-20T16:18:39;3.22;;;2.65;;
69951;SDS011;60406;48.408;13.392;2022-11-20T16:23:41;4.07;;;3.35;;
69951;SDS011;60406;48.408;13.392;2022-11-20T16:29:03;3.20;;;2.90;;
69951;SDS011;60406;48.408;13.392;2022-11-20T16:34:06;2.85;;;2.42;;
69951;SDS011;60406;48.408;13.392;2022-11-20T16:39:07;4.53;;;4.03;;
69951;SDS011;60406;48.408;13.392;2022-11-20T16:44:28;3.22;;;2.35;;
69951;SDS011;60406;48.408;13.392;2022-11-20T16:49:29;3.78;;;2.65;;
69951;SDS011;60406;48.408;13.392;2022-11-20T16:54:30;3.33;;;3.03;;
69951;SDS011;60406;48.408;13.392;2022-11-20T16:59:31;5.32;;;3.00;;
69951;SDS011;60406;48.408;13.392;2022-11-20T17:04:32;4.72;;;4.13;;
69951;SDS011;60406;48.408;13.392;2022-11-20T17:09:33;6.68;;;3.97;;
69951;SDS011;60406;48.408;13.392;2022-11-20T17:14:33;3.95;;;3.55;;
69951;SDS011;60406;48.408;13.392;2022-11-20T17:19:34;6.93;;;5.78;;
69951;SDS011;60406;48.408;13.392;2022-11-20T17:24:35;15.05;;;10.73;;
69951;SDS011;60406;48.408;13.392;2022-11-20T17:29:36;16.45;;;9.68;;
69951;SDS011;60406;48.408;13.392;2022-11-20T17:34:57;15.98;;;10.07;;
69951;SDS011;60406;48.408;13.392;2022-11-20T17:40:18;10.50;;;9.40;;
69951;SDS011;60406;48.408;13.392;2022-11-20T17:45:19;13.13;;;9.32;;
69951;SDS011;60406;48.408;13.392;2022-11-20T17:50:40;13.77;;;10.57;;
69951;SDS011;60406;48.408;13.392;2022-11-20T17:55:41;19.02;;;14.20;;
69951;SDS011;60406;48.408;13.392;2022-11-20T18:00:42;9.10;;;6.93;;
69951;SDS011;60406;48.408;13.392;2022-11-20T18:05:43;11.20;;;7.72;;
69951;SDS011;60406;48.408;13.392;2022-11-20T18:16:36;10.85;;;8.52;;
69951;SDS011;60406;48.408;13.392;2022-11-20T18:21:41;15.40;;;10.02;;
69951;SDS011;60406;48.408;13.392;2022-11-20T18:26:42;7.55;;;5.93;;
69951;SDS011;60406;48.408;13.392;2022-11-20T18:31:43;8.20;;;5.07;;
69951;SDS011;60406;48.408;13.392;2022-11-20T18:36:44;6.18;;;5.00;;
69951;SDS011;60406;48.408;13.392;2022-11-20T18:41:45;11.60;;;8.68;;
69951;SDS011;60406;48.408;13.392;2022-11-20T18:47:07;24.20;;;17.50;;
69951;SDS011;60406;48.408;13.392;2022-11-20T18:52:11;16.58;;;13.43;;
69951;SDS011;60406;48.408;13.392;2022-11-20T18:57:12;14.10;;;10.57;;
69951;SDS011;60406;48.408;13.392;2022-11-20T19:02:14;24.52;;;15.60;;
69951;SDS011;60406;48.408;13.392;2022-11-20T19:07:16;33.78;;;20.45;;
69951;SDS011;60406;48.408;13.392;2022-11-20T19:12:37;16.15;;;12.95;;
69951;SDS011;60406;48.408;13.392;2022-11-20T19:17:38;37.00;;;22.63;;
69951;SDS011;60406;48.408;13.392;2022-11-20T19:22:39;44.13;;;22.77;;
69951;SDS011;60406;48.408;13.392;2022-11-20T19:27:39;29.48;;;17.20;;
69951;SDS011;60406;48.408;13.392;2022-11-20T19:33:01;20.92;;;13.40;;
69951;SDS011;60406;48.408;13.392;2022-11-20T19:38:01;22.23;;;16.33;;
69951;SDS011;60406;48.408;13.392;2022-11-20T19:43:02;14.88;;;10.38;;
69951;SDS011;60406;48.408;13.392;2022-11-20T19:48:24;18.95;;;13.95;;
69951;SDS011;60406;48.408;13.392;2022-11-20T19:53:25;22.02;;;14.35;;
69951;SDS011;60406;48.408;13.392;2022-11-20T19:58:26;15.65;;;12.18;;
69951;SDS011;60406;48.408;13.392;2022-11-20T20:03:47;18.23;;;12.38;;
69951;SDS011;60406;48.408;13.392;2022-11-20T20:09:09;13.65;;;8.95;;
69951;SDS011;60406;48.408;13.392;2022-11-20T20:14:12;11.55;;;8.57;;
69951;SDS011;60406;48.408;13.392;2022-11-20T20:19:35;12.23;;;9.68;;
69951;SDS011;60406;48.408;13.392;2022-11-20T20:24:35;12.23;;;8.30;;
69951;SDS011;60406;48.408;13.392;2022-11-20T20:29:36;8.65;;;7.57;;
69951;SDS011;60406;48.408;13.392;2022-11-20T20:34:57;15.15;;;10.95;;
69951;SDS011;60406;48.408;13.392;2022-11-20T20:39:58;9.73;;;8.40;;
69951;SDS011;60406;48.408;13.392;2022-11-20T20:44:59;9.30;;;6.70;;
69951;SDS011;60406;48.408;13.392;2022-11-20T20:50:00;16.88;;;9.77;;
69951;SDS011;60406;48.408;13.392;2022-11-20T20:55:02;5.93;;;4.38;;
69951;SDS011;60406;48.408;13.392;2022-11-20T21:00:04;8.65;;;5.53;;
69951;SDS011;60406;48.408;13.392;2022-11-20T21:05:25;11.77;;;6.15;;
69951;SDS011;60406;48.408;13.392;2022-11-20T21:10:26;7.80;;;5.68;;
69951;SDS011;60406;48.408;13.392;2022-11-20T21:15:27;8.05;;;6.70;;
69951;SDS011;60406;48.408;13.392;2022-11-20T21:20:28;8.50;;;6.25;;
69951;SDS011;60406;48.408;13.392;2022-11-20T21:25:29;13.40;;;8.07;;
69951;SDS011;60406;48.408;13.392;2022-11-20T21:30:30;9.15;;;7.05;;
69951;SDS011;60406;48.408;13.392;2022-11-20T21:35:33;45.60;;;35.15;;
69951;SDS011;60406;48.408;13.392;2022-11-20T21:40:34;20.85;;;15.77;;
69951;SDS011;60406;48.408;13.392;2022-11-20T21:45:35;17.80;;;12.35;;
69951;SDS011;60406;48.408;13.392;2022-11-20T21:50:36;15.20;;;10.70;;
69951;SDS011;60406;48.408;13.392;2022-11-20T21:55:37;12.65;;;8.20;;
69951;SDS011;60406;48.408;13.392;2022-11-20T22:00:38;11.73;;;9.10;;
69951;SDS011;60406;48.408;13.392;2022-11-20T22:05:39;13.68;;;8.35;;
69951;SDS011;60406;48.408;13.392;2022-11-20T22:10:40;10.50;;;8.15;;
69951;SDS011;60406;48.408;13.392;2022-11-20T22:15:41;9.10;;;6.55;;
69951;SDS011;60406;48.408;13.392;2022-11-20T22:20:41;10.63;;;7.00;;
69951;SDS011;60406;48.408;13.392;2022-11-20T22:26:06;10.70;;;7.18;;
69951;SDS011;60406;48.408;13.392;2022-11-20T22:31:09;8.88;;;7.88;;
69951;SDS011;60406;48.408;13.392;2022-11-20T22:36:31;13.57;;;11.65;;
69951;SDS011;60406;48.408;13.392;2022-11-20T22:41:31;11.50;;;9.05;;
69951;SDS011;60406;48.408;13.392;2022-11-20T22:46:33;11.20;;;8.10;;
69951;SDS011;60406;48.408;13.392;2022-11-20T22:51:55;12.02;;;10.60;;
69951;SDS011;60406;48.408;13.392;2022-11-20T22:56:56;11.57;;;9.82;;
69951;SDS011;60406;48.408;13.392;2022-11-20T23:01:57;13.00;;;11.38;;
69951;SDS011;60406;48.408;13.392;2022-11-20T23:06:58;12.57;;;10.30;;
69951;SDS011;60406;48.408;13.392;2022-11-20T23:11:59;12.57;;;10.20;;
69951;SDS011;60406;48.408;13.392;2022-11-20T23:17:00;13.57;;;10.75;;
69951;SDS011;60406;48.408;13.392;2022-11-20T23:22:01;14.35;;;11.10;;
69951;SDS011;60406;48.408;13.392;2022-11-20T23:27:01;10.07;;;8.98;;
69951;SDS011;60406;48.408;13.392;2022-11-20T23:32:02;7.45;;;5.90;;
69951;SDS011;60406;48.408;13.392;2022-11-20T23:37:03;7.88;;;5.88;;
69951;SDS011;60406;48.408;13.392;2022-11-20T23:42:24;8.05;;;5.82;;
69951;SDS011;60406;48.408;13.392;2022-11-20T23:47:25;8.70;;;6.35;;
69951;SDS011;60406;48.408;13.392;2022-11-20T23:52:26;6.10;;;5.38;;
69951;SDS011;60406;48.408;13.392;2022-11-20T23:57:48;7.78;;;4.97;;
